sensor_id;sensor_type;location;lat;lon;timestamp;pressure;altitude;pressure_sealevel;temperature;humidity
44138;BME280;29800;55.942;37.314;2023-07-31T00:00:47;98730.16;;;13.13;87.07
44138;BME280;29800;55.942;37.314;2023-07-31T00:03:14;98728.00;;;13.10;87.18
44138;BME280;29800;55.942;37.314;2023-07-31T00:05:40;98728.56;;;13.06;87.13
44138;BME280;29800;55.942;37.314;2023-07-31T00:08:06;98737.94;;;13.05;87.56
44138;BME280;29800;55.942;37.314;2023-07-31T00:10:32;98731.38;;;13.01;87.43
44138;BME280;29800;55.942;37.314;2023-07-31T00:12:59;98734.69;;;12.98;87.36
44138;BME280;29800;55.942;37.314;2023-07-31T00:15:25;98730.63;;;12.96;87.33
44138;BME280;29800;55.942;37.314;2023-07-31T00:17:52;98739.97;;;12.95;87.85
44138;BME280;29800;55.942;37.314;2023-07-31T00:20:18;98740.53;;;12.92;87.22
44138;BME280;29800;55.942;37.314;2023-07-31T00:22:44;98740.31;;;12.88;87.56
44138;BME280;29800;55.942;37.314;2023-07-31T00:25:10;98735.69;;;12.83;87.34
44138;BME280;29800;55.942;37.314;2023-07-31T00:27:37;98733.78;;;12.79;87.51
44138;BME280;29800;55.942;37.314;2023-07-31T00:30:04;98739.03;;;12.75;87.84
44138;BME280;29800;55.942;37.314;2023-07-31T00:32:33;98732.22;;;12.73;87.53
44138;BME280;29800;55.942;37.314;2023-07-31T00:34:59;98734.69;;;12.74;87.72
44138;BME280;29800;55.942;37.314;2023-07-31T00:37:26;98736.88;;;12.72;88.12
44138;BME280;29800;55.942;37.314;2023-07-31T00:39:52;98735.25;;;12.71;88.15
44138;BME280;29800;55.942;37.314;2023-07-31T00:42:18;98728.13;;;12.70;88.44
44138;BME280;29800;55.942;37.314;2023-07-31T00:44:44;98728.13;;;12.70;88.19
44138;BME280;29800;55.942;37.314;2023-07-31T00:47:11;98725.03;;;12.77;88.34
44138;BME280;29800;55.942;37.314;2023-07-31T00:49:37;98726.91;;;12.81;88.22
44138;BME280;29800;55.942;37.314;2023-07-31T00:52:04;98729.91;;;12.85;87.90
44138;BME280;29800;55.942;37.314;2023-07-31T00:54:30;98734.81;;;12.88;87.43
44138;BME280;29800;55.942;37.314;2023-07-31T00:56:57;98726.00;;;12.91;87.47
44138;BME280;29800;55.942;37.314;2023-07-31T00:59:24;98721.03;;;12.93;87.04
44138;BME280;29800;55.942;37.314;2023-07-31T01:01:50;98722.69;;;12.94;86.82
44138;BME280;29800;55.942;37.314;2023-07-31T01:04:17;98716.59;;;12.97;87.05
44138;BME280;29800;55.942;37.314;2023-07-31T01:07:00;98710.81;;;12.99;86.60
44138;BME280;29800;55.942;37.314;2023-07-31T01:12:02;98712.63;;;13.09;86.73
44138;BME280;29800;55.942;37.314;2023-07-31T01:14:29;98724.97;;;13.11;86.63
44138;BME280;29800;55.942;37.314;2023-07-31T01:16:55;98725.47;;;13.13;86.21
44138;BME280;29800;55.942;37.314;2023-07-31T01:19:24;98723.00;;;13.17;86.21
44138;BME280;29800;55.942;37.314;2023-07-31T01:22:12;98714.69;;;13.22;85.84
44138;BME280;29800;55.942;37.314;2023-07-31T01:24:59;98723.97;;;13.26;85.43
44138;BME280;29800;55.942;37.314;2023-07-31T01:27:35;98727.84;;;13.25;85.16
44138;BME280;29800;55.942;37.314;2023-07-31T01:30:11;98731.69;;;13.24;85.53
44138;BME280;29800;55.942;37.314;2023-07-31T01:32:44;98725.97;;;13.20;85.04
44138;BME280;29800;55.942;37.314;2023-07-31T01:35:13;98724.59;;;13.18;85.21
44138;BME280;29800;55.942;37.314;2023-07-31T01:37:40;98721.06;;;13.17;85.12
44138;BME280;29800;55.942;37.314;2023-07-31T01:40:08;98724.09;;;13.16;84.83
44138;BME280;29800;55.942;37.314;2023-07-31T01:42:35;98723.84;;;13.12;85.21
44138;BME280;29800;55.942;37.314;2023-07-31T01:45:01;98723.03;;;13.12;85.26
44138;BME280;29800;55.942;37.314;2023-07-31T01:47:30;98723.63;;;13.09;84.78
44138;BME280;29800;55.942;37.314;2023-07-31T01:49:56;98721.16;;;13.07;85.17
44138;BME280;29800;55.942;37.314;2023-07-31T01:52:23;98718.16;;;13.03;84.80
44138;BME280;29800;55.942;37.314;2023-07-31T01:54:49;98728.34;;;13.03;84.85
44138;BME280;29800;55.942;37.314;2023-07-31T01:57:16;98725.38;;;12.99;84.84
44138;BME280;29800;55.942;37.314;2023-07-31T01:59:43;98720.16;;;12.98;84.77
44138;BME280;29800;55.942;37.314;2023-07-31T02:02:10;98727.59;;;12.97;85.05
44138;BME280;29800;55.942;37.314;2023-07-31T02:04:37;98718.81;;;12.95;85.27
44138;BME280;29800;55.942;37.314;2023-07-31T02:07:05;98721.03;;;12.93;85.06
44138;BME280;29800;55.942;37.314;2023-07-31T02:09:31;98724.91;;;12.92;85.13
44138;BME280;29800;55.942;37.314;2023-07-31T02:11:58;98723.78;;;12.93;85.10
44138;BME280;29800;55.942;37.314;2023-07-31T02:14:25;98722.97;;;12.93;85.18
44138;BME280;29800;55.942;37.314;2023-07-31T02:16:51;98729.78;;;12.95;85.79
44138;BME280;29800;55.942;37.314;2023-07-31T02:19:18;98720.44;;;12.96;85.70
44138;BME280;29800;55.942;37.314;2023-07-31T02:21:44;98734.69;;;12.98;85.75
44138;BME280;29800;55.942;37.314;2023-07-31T02:24:11;98729.75;;;13.00;85.78
44138;BME280;29800;55.942;37.314;2023-07-31T02:26:37;98734.97;;;13.02;85.60
44138;BME280;29800;55.942;37.314;2023-07-31T02:29:04;98739.03;;;13.04;85.70
44138;BME280;29800;55.942;37.314;2023-07-31T02:31:30;98730.75;;;13.10;86.34
44138;BME280;29800;55.942;37.314;2023-07-31T02:33:57;98729.06;;;13.14;86.15
44138;BME280;29800;55.942;37.314;2023-07-31T02:36:23;98724.31;;;13.19;86.18
44138;BME280;29800;55.942;37.314;2023-07-31T02:38:49;98721.00;;;13.22;86.30
44138;BME280;29800;55.942;37.314;2023-07-31T02:41:16;98727.28;;;13.23;86.55
44138;BME280;29800;55.942;37.314;2023-07-31T02:43:42;98722.34;;;13.25;86.81
44138;BME280;29800;55.942;37.314;2023-07-31T02:46:08;98725.84;;;13.31;86.29
44138;BME280;29800;55.942;37.314;2023-07-31T02:48:34;98721.72;;;13.33;86.17
44138;BME280;29800;55.942;37.314;2023-07-31T02:51:01;98718.41;;;13.36;86.13
44138;BME280;29800;55.942;37.314;2023-07-31T02:53:27;98720.25;;;13.41;86.05
44138;BME280;29800;55.942;37.314;2023-07-31T02:55:53;98722.69;;;13.42;86.13
44138;BME280;29800;55.942;37.314;2023-07-31T02:58:20;98722.13;;;13.46;86.04
44138;BME280;29800;55.942;37.314;2023-07-31T03:00:46;98724.28;;;13.49;86.35
44138;BME280;29800;55.942;37.314;2023-07-31T03:03:13;98726.44;;;13.52;86.28
44138;BME280;29800;55.942;37.314;2023-07-31T03:05:39;98731.34;;;13.55;85.88
44138;BME280;29800;55.942;37.314;2023-07-31T03:08:05;98726.91;;;13.59;85.59
44138;BME280;29800;55.942;37.314;2023-07-31T03:10:32;98731.75;;;13.67;86.34
44138;BME280;29800;55.942;37.314;2023-07-31T03:12:58;98727.00;;;13.73;85.70
44138;BME280;29800;55.942;37.314;2023-07-31T03:15:25;98728.88;;;13.77;85.77
44138;BME280;29800;55.942;37.314;2023-07-31T03:17:51;98734.00;;;13.84;85.60
44138;BME280;29800;55.942;37.314;2023-07-31T03:20:18;98726.50;;;13.90;85.53
44138;BME280;29800;55.942;37.314;2023-07-31T03:22:44;98715.41;;;13.95;85.28
44138;BME280;29800;55.942;37.314;2023-07-31T03:25:11;98719.72;;;14.01;85.45
44138;BME280;29800;55.942;37.314;2023-07-31T03:27:37;98722.91;;;14.08;85.46
44138;BME280;29800;55.942;37.314;2023-07-31T03:30:04;98717.88;;;14.15;85.56
44138;BME280;29800;55.942;37.314;2023-07-31T03:32:32;98721.06;;;14.23;85.64
44138;BME280;29800;55.942;37.314;2023-07-31T03:34:59;98716.81;;;14.30;85.34
44138;BME280;29800;55.942;37.314;2023-07-31T03:37:25;98718.06;;;14.38;85.47
44138;BME280;29800;55.942;37.314;2023-07-31T03:39:53;98721.75;;;14.47;85.67
44138;BME280;29800;55.942;37.314;2023-07-31T03:42:19;98722.72;;;14.57;85.29
44138;BME280;29800;55.942;37.314;2023-07-31T03:44:45;98719.31;;;14.65;85.09
44138;BME280;29800;55.942;37.314;2023-07-31T03:47:12;98722.69;;;14.76;85.30
44138;BME280;29800;55.942;37.314;2023-07-31T03:49:38;98717.31;;;14.84;84.85
44138;BME280;29800;55.942;37.314;2023-07-31T03:52:05;98726.50;;;14.94;84.27
44138;BME280;29800;55.942;37.314;2023-07-31T03:54:31;98720.28;;;15.02;83.72
44138;BME280;29800;55.942;37.314;2023-07-31T03:56:58;98724.78;;;15.12;83.68
44138;BME280;29800;55.942;37.314;2023-07-31T03:59:24;98718.06;;;15.46;84.37
44138;BME280;29800;55.942;37.314;2023-07-31T04:01:50;98704.47;;;15.77;84.20
44138;BME280;29800;55.942;37.314;2023-07-31T04:04:16;98708.69;;;16.11;82.96
44138;BME280;29800;55.942;37.314;2023-07-31T04:06:43;98703.94;;;16.48;81.28
44138;BME280;29800;55.942;37.314;2023-07-31T04:09:09;98710.78;;;16.82;79.62
44138;BME280;29800;55.942;37.314;2023-07-31T04:11:36;98711.28;;;17.06;77.75
44138;BME280;29800;55.942;37.314;2023-07-31T04:14:02;98710.72;;;17.27;77.01
44138;BME280;29800;55.942;37.314;2023-07-31T04:16:28;98702.16;;;17.46;75.97
44138;BME280;29800;55.942;37.314;2023-07-31T04:18:54;98709.53;;;17.59;75.40
44138;BME280;29800;55.942;37.314;2023-07-31T04:21:21;98709.06;;;17.66;75.02
44138;BME280;29800;55.942;37.314;2023-07-31T04:23:47;98708.59;;;17.73;74.39
44138;BME280;29800;55.942;37.314;2023-07-31T04:26:13;98719.00;;;17.76;74.38
44138;BME280;29800;55.942;37.314;2023-07-31T04:28:39;98712.22;;;17.91;73.81
44138;BME280;29800;55.942;37.314;2023-07-31T04:31:06;98713.53;;;18.02;73.08
44138;BME280;29800;55.942;37.314;2023-07-31T04:33:32;98723.28;;;18.08;72.93
44138;BME280;29800;55.942;37.314;2023-07-31T04:36:00;98729.47;;;18.05;73.88
44138;BME280;29800;55.942;37.314;2023-07-31T04:38:26;98721.69;;;18.07;74.43
44138;BME280;29800;55.942;37.314;2023-07-31T04:40:52;98718.75;;;18.12;73.42
44138;BME280;29800;55.942;37.314;2023-07-31T04:43:19;98717.25;;;18.15;73.22
44138;BME280;29800;55.942;37.314;2023-07-31T04:45:46;98721.50;;;18.21;74.17
44138;BME280;29800;55.942;37.314;2023-07-31T04:48:16;98717.13;;;18.29;73.28
44138;BME280;29800;55.942;37.314;2023-07-31T04:50:42;98718.28;;;18.36;73.61
44138;BME280;29800;55.942;37.314;2023-07-31T04:53:08;98726.56;;;18.45;74.08
44138;BME280;29800;55.942;37.314;2023-07-31T04:55:35;98721.97;;;18.49;72.74
44138;BME280;29800;55.942;37.314;2023-07-31T04:58:01;98716.78;;;18.57;72.24
44138;BME280;29800;55.942;37.314;2023-07-31T05:00:27;98724.91;;;18.62;71.68
44138;BME280;29800;55.942;37.314;2023-07-31T05:02:54;98719.69;;;18.69;71.61
44138;BME280;29800;55.942;37.314;2023-07-31T05:05:20;98724.38;;;18.77;71.75
44138;BME280;29800;55.942;37.314;2023-07-31T05:07:47;98723.09;;;18.83;70.51
44138;BME280;29800;55.942;37.314;2023-07-31T05:10:13;98727.34;;;18.89;70.07
44138;BME280;29800;55.942;37.314;2023-07-31T05:12:39;98729.28;;;18.98;69.17
44138;BME280;29800;55.942;37.314;2023-07-31T05:15:06;98726.94;;;19.08;69.31
44138;BME280;29800;55.942;37.314;2023-07-31T05:17:32;98725.28;;;19.16;69.44
44138;BME280;29800;55.942;37.314;2023-07-31T05:19:58;98722.00;;;19.23;68.62
44138;BME280;29800;55.942;37.314;2023-07-31T05:22:25;98727.53;;;19.32;69.40
44138;BME280;29800;55.942;37.314;2023-07-31T05:24:51;98722.28;;;19.39;68.14
44138;BME280;29800;55.942;37.314;2023-07-31T05:27:20;98721.28;;;19.43;67.34
44138;BME280;29800;55.942;37.314;2023-07-31T05:29:46;98727.91;;;19.51;67.57
44138;BME280;29800;55.942;37.314;2023-07-31T05:32:12;98722.53;;;19.55;67.01
44138;BME280;29800;55.942;37.314;2023-07-31T05:34:38;98722.34;;;19.60;67.21
44138;BME280;29800;55.942;37.314;2023-07-31T05:37:05;98721.81;;;19.67;66.59
44138;BME280;29800;55.942;37.314;2023-07-31T05:39:31;98716.06;;;19.72;64.84
44138;BME280;29800;55.942;37.314;2023-07-31T05:41:58;98721.91;;;19.79;65.11
44138;BME280;29800;55.942;37.314;2023-07-31T05:44:24;98726.94;;;19.86;64.29
44138;BME280;29800;55.942;37.314;2023-07-31T05:46:50;98724.78;;;19.91;63.90
44138;BME280;29800;55.942;37.314;2023-07-31T05:49:16;98726.69;;;19.99;63.83
44138;BME280;29800;55.942;37.314;2023-07-31T05:51:43;98729.25;;;20.05;63.54
44138;BME280;29800;55.942;37.314;2023-07-31T05:54:09;98727.25;;;20.14;63.74
44138;BME280;29800;55.942;37.314;2023-07-31T05:56:35;98733.41;;;20.19;62.74
44138;BME280;29800;55.942;37.314;2023-07-31T05:59:02;98731.03;;;20.30;62.10
44138;BME280;29800;55.942;37.314;2023-07-31T06:01:28;98725.84;;;20.41;62.96
44138;BME280;29800;55.942;37.314;2023-07-31T06:03:55;98720.59;;;20.48;61.50
44138;BME280;29800;55.942;37.314;2023-07-31T06:06:21;98728.03;;;20.56;60.46
44138;BME280;29800;55.942;37.314;2023-07-31T06:08:47;98727.63;;;20.67;59.04
44138;BME280;29800;55.942;37.314;2023-07-31T06:11:14;98724.75;;;20.75;59.41
44138;BME280;29800;55.942;37.314;2023-07-31T06:13:40;98728.59;;;20.83;59.68
44138;BME280;29800;55.942;37.314;2023-07-31T06:16:07;98722.25;;;20.95;59.45
44138;BME280;29800;55.942;37.314;2023-07-31T06:18:33;98718.56;;;21.03;56.68
44138;BME280;29800;55.942;37.314;2023-07-31T06:21:00;98720.56;;;21.15;57.72
44138;BME280;29800;55.942;37.314;2023-07-31T06:23:26;98713.88;;;21.28;56.20
44138;BME280;29800;55.942;37.314;2023-07-31T06:25:52;98722.09;;;21.37;54.17
44138;BME280;29800;55.942;37.314;2023-07-31T06:28:19;98721.66;;;21.47;56.22
44138;BME280;29800;55.942;37.314;2023-07-31T06:30:45;98720.97;;;21.63;54.52
44138;BME280;29800;55.942;37.314;2023-07-31T06:33:12;98723.03;;;21.66;57.39
44138;BME280;29800;55.942;37.314;2023-07-31T06:35:38;98720.47;;;21.85;55.84
44138;BME280;29800;55.942;37.314;2023-07-31T06:38:04;98719.44;;;21.90;54.77
44138;BME280;29800;55.942;37.314;2023-07-31T06:40:31;98720.47;;;21.98;54.75
44138;BME280;29800;55.942;37.314;2023-07-31T06:42:57;98724.66;;;22.04;55.16
44138;BME280;29800;55.942;37.314;2023-07-31T06:45:23;98722.16;;;22.15;55.20
44138;BME280;29800;55.942;37.314;2023-07-31T06:47:49;98724.09;;;22.27;52.67
44138;BME280;29800;55.942;37.314;2023-07-31T06:50:16;98719.69;;;22.38;52.74
44138;BME280;29800;55.942;37.314;2023-07-31T06:52:42;98721.75;;;22.53;52.61
44138;BME280;29800;55.942;37.314;2023-07-31T06:55:19;98723.75;;;22.69;49.97
44138;BME280;29800;55.942;37.314;2023-07-31T06:57:48;98737.66;;;22.81;49.79
44138;BME280;29800;55.942;37.314;2023-07-31T07:00:16;98727.69;;;22.96;49.81
44138;BME280;29800;55.942;37.314;2023-07-31T07:02:43;98733.44;;;23.03;48.48
44138;BME280;29800;55.942;37.314;2023-07-31T07:05:09;98730.97;;;23.14;48.47
44138;BME280;29800;55.942;37.314;2023-07-31T07:07:36;98739.53;;;23.21;46.96
44138;BME280;29800;55.942;37.314;2023-07-31T07:10:03;98743.41;;;23.33;46.16
44138;BME280;29800;55.942;37.314;2023-07-31T07:12:32;98746.84;;;23.42;46.01
44138;BME280;29800;55.942;37.314;2023-07-31T07:14:59;98744.31;;;23.53;45.83
44138;BME280;29800;55.942;37.314;2023-07-31T07:17:28;98741.72;;;23.60;46.18
44138;BME280;29800;55.942;37.314;2023-07-31T07:19:55;98739.50;;;23.69;45.36
44138;BME280;29800;55.942;37.314;2023-07-31T07:22:22;98735.28;;;23.75;44.80
44138;BME280;29800;55.942;37.314;2023-07-31T07:24:48;98737.53;;;23.85;45.96
44138;BME280;29800;55.942;37.314;2023-07-31T07:27:14;98735.00;;;23.96;45.31
44138;BME280;29800;55.942;37.314;2023-07-31T07:29:40;98734.75;;;24.21;46.27
44138;BME280;29800;55.942;37.314;2023-07-31T07:32:07;98736.75;;;24.40;45.60
44138;BME280;29800;55.942;37.314;2023-07-31T07:34:35;98725.78;;;24.51;43.66
44138;BME280;29800;55.942;37.314;2023-07-31T07:37:01;98734.53;;;24.49;44.88
44138;BME280;29800;55.942;37.314;2023-07-31T07:39:27;98727.84;;;24.54;44.00
44138;BME280;29800;55.942;37.314;2023-07-31T07:41:54;98736.31;;;24.77;44.32
44138;BME280;29800;55.942;37.314;2023-07-31T07:44:20;98735.97;;;24.79;42.40
44138;BME280;29800;55.942;37.314;2023-07-31T07:46:46;98738.44;;;24.84;44.22
44138;BME280;29800;55.942;37.314;2023-07-31T07:49:12;98740.41;;;25.03;41.86
44138;BME280;29800;55.942;37.314;2023-07-31T07:51:39;98732.34;;;24.98;44.64
44138;BME280;29800;55.942;37.314;2023-07-31T07:54:05;98729.56;;;25.21;43.05
44138;BME280;29800;55.942;37.314;2023-07-31T07:56:33;98724.00;;;25.24;42.37
44138;BME280;29800;55.942;37.314;2023-07-31T07:58:59;98729.94;;;25.42;39.92
44138;BME280;29800;55.942;37.314;2023-07-31T08:01:25;98730.00;;;25.46;41.96
44138;BME280;29800;55.942;37.314;2023-07-31T08:03:51;98739.19;;;25.46;43.30
44138;BME280;29800;55.942;37.314;2023-07-31T08:06:18;98734.66;;;25.38;43.75
44138;BME280;29800;55.942;37.314;2023-07-31T08:08:44;98733.50;;;25.39;41.32
44138;BME280;29800;55.942;37.314;2023-07-31T08:11:11;98733.75;;;25.30;41.33
44138;BME280;29800;55.942;37.314;2023-07-31T08:13:37;98733.69;;;25.50;40.35
44138;BME280;29800;55.942;37.314;2023-07-31T08:16:04;98743.81;;;25.58;41.53
44138;BME280;29800;55.942;37.314;2023-07-31T08:18:31;98738.38;;;25.69;41.55
44138;BME280;29800;55.942;37.314;2023-07-31T08:20:58;98735.38;;;25.81;41.69
44138;BME280;29800;55.942;37.314;2023-07-31T08:23:25;98733.88;;;25.88;42.05
44138;BME280;29800;55.942;37.314;2023-07-31T08:25:51;98733.88;;;25.88;42.79
44138;BME280;29800;55.942;37.314;2023-07-31T08:28:17;98734.31;;;26.16;42.42
44138;BME280;29800;55.942;37.314;2023-07-31T08:30:44;98735.97;;;26.21;39.56
44138;BME280;29800;55.942;37.314;2023-07-31T08:33:10;98733.13;;;26.17;39.94
44138;BME280;29800;55.942;37.314;2023-07-31T08:35:37;98732.25;;;26.13;41.79
44138;BME280;29800;55.942;37.314;2023-07-31T08:38:03;98736.06;;;26.28;40.30
44138;BME280;29800;55.942;37.314;2023-07-31T08:40:29;98743.75;;;26.35;38.81
44138;BME280;29800;55.942;37.314;2023-07-31T08:42:56;98739.78;;;26.36;40.26
44138;BME280;29800;55.942;37.314;2023-07-31T08:45:25;98736.28;;;26.46;39.66
44138;BME280;29800;55.942;37.314;2023-07-31T08:47:52;98737.97;;;26.51;39.49
44138;BME280;29800;55.942;37.314;2023-07-31T08:50:19;98739.84;;;26.70;39.67
44138;BME280;29800;55.942;37.314;2023-07-31T08:52:47;98740.59;;;26.67;36.89
44138;BME280;29800;55.942;37.314;2023-07-31T08:55:14;98729.38;;;26.67;37.05
44138;BME280;29800;55.942;37.314;2023-07-31T08:57:42;98742.19;;;26.68;37.63
44138;BME280;29800;55.942;37.314;2023-07-31T09:00:10;98746.97;;;26.64;38.87
44138;BME280;29800;55.942;37.314;2023-07-31T09:03:01;98743.06;;;26.72;36.15
44138;BME280;29800;55.942;37.314;2023-07-31T09:05:26;98740.59;;;26.67;36.71
44138;BME280;29800;55.942;37.314;2023-07-31T09:07:55;98740.63;;;26.70;35.81
44138;BME280;29800;55.942;37.314;2023-07-31T09:10:22;98738.22;;;26.69;36.32
44138;BME280;29800;55.942;37.314;2023-07-31T09:12:50;98738.59;;;26.67;38.44
44138;BME280;29800;55.942;37.314;2023-07-31T09:15:17;98729.63;;;26.88;37.48
44138;BME280;29800;55.942;37.314;2023-07-31T09:17:43;98731.13;;;26.82;37.62
44138;BME280;29800;55.942;37.314;2023-07-31T09:20:15;98736.16;;;27.00;38.08
44138;BME280;29800;55.942;37.314;2023-07-31T09:22:42;98742.69;;;27.11;37.02
44138;BME280;29800;55.942;37.314;2023-07-31T09:25:18;98736.38;;;27.25;36.91
44138;BME280;29800;55.942;37.314;2023-07-31T09:27:59;98734.09;;;27.34;35.99
44138;BME280;29800;55.942;37.314;2023-07-31T09:30:26;98738.19;;;27.40;37.00
44138;BME280;29800;55.942;37.314;2023-07-31T09:33:03;98736.72;;;27.61;35.64
44138;BME280;29800;55.942;37.314;2023-07-31T09:35:34;98730.44;;;27.75;34.33
44138;BME280;29800;55.942;37.314;2023-07-31T09:38:07;98732.00;;;27.68;35.69
44138;BME280;29800;55.942;37.314;2023-07-31T09:40:35;98731.50;;;27.59;35.27
44138;BME280;29800;55.942;37.314;2023-07-31T09:43:07;98737.50;;;27.54;35.99
44138;BME280;29800;55.942;37.314;2023-07-31T09:45:41;98738.25;;;27.51;36.66
44138;BME280;29800;55.942;37.314;2023-07-31T09:48:10;98734.19;;;27.45;35.46
44138;BME280;29800;55.942;37.314;2023-07-31T09:50:38;98739.03;;;27.48;34.50
44138;BME280;29800;55.942;37.314;2023-07-31T09:53:06;98726.19;;;27.43;33.95
44138;BME280;29800;55.942;37.314;2023-07-31T09:55:33;98742.13;;;27.32;36.17
44138;BME280;29800;55.942;37.314;2023-07-31T09:58:04;98732.41;;;27.26;37.38
44138;BME280;29800;55.942;37.314;2023-07-31T10:00:32;98738.59;;;27.42;35.24
44138;BME280;29800;55.942;37.314;2023-07-31T10:03:00;98743.09;;;27.54;34.64
44138;BME280;29800;55.942;37.314;2023-07-31T10:05:50;98744.03;;;27.73;35.09
44138;BME280;29800;55.942;37.314;2023-07-31T10:08:18;98736.72;;;27.61;34.79
44138;BME280;29800;55.942;37.314;2023-07-31T10:10:46;98745.44;;;27.45;35.95
44138;BME280;29800;55.942;37.314;2023-07-31T10:13:13;98741.34;;;27.35;35.29
44138;BME280;29800;55.942;37.314;2023-07-31T10:15:41;98747.19;;;27.19;35.35
44138;BME280;29800;55.942;37.314;2023-07-31T10:18:09;98744.59;;;27.03;35.46
44138;BME280;29800;55.942;37.314;2023-07-31T10:20:37;98746.81;;;26.83;35.51
44138;BME280;29800;55.942;37.314;2023-07-31T10:23:03;98747.69;;;26.60;36.97
44138;BME280;29800;55.942;37.314;2023-07-31T10:25:30;98749.94;;;26.48;36.71
44138;BME280;29800;55.942;37.314;2023-07-31T10:27:58;98757.03;;;26.38;37.06
44138;BME280;29800;55.942;37.314;2023-07-31T10:30:27;98750.41;;;26.23;37.10
44138;BME280;29800;55.942;37.314;2023-07-31T10:32:56;98755.28;;;26.26;38.52
44138;BME280;29800;55.942;37.314;2023-07-31T10:35:23;98746.78;;;26.19;38.81
44138;BME280;29800;55.942;37.314;2023-07-31T10:37:50;98750.56;;;26.34;37.70
44138;BME280;29800;55.942;37.314;2023-07-31T10:40:25;98743.53;;;26.47;37.35
44138;BME280;29800;55.942;37.314;2023-07-31T10:42:55;98740.66;;;26.40;36.82
44138;BME280;29800;55.942;37.314;2023-07-31T10:45:42;98749.84;;;26.40;36.26
44138;BME280;29800;55.942;37.314;2023-07-31T10:48:14;98744.44;;;26.25;37.63
44138;BME280;29800;55.942;37.314;2023-07-31T10:50:50;98739.88;;;26.13;37.14
44138;BME280;29800;55.942;37.314;2023-07-31T10:53:29;98744.56;;;26.05;37.33
44138;BME280;29800;55.942;37.314;2023-07-31T10:56:02;98741.91;;;26.16;38.67
44138;BME280;29800;55.942;37.314;2023-07-31T10:58:30;98734.38;;;26.23;39.24
44138;BME280;29800;55.942;37.314;2023-07-31T11:01:02;98738.63;;;26.40;37.95
44138;BME280;29800;55.942;37.314;2023-07-31T11:03:48;98736.75;;;26.48;38.89
44138;BME280;29800;55.942;37.314;2023-07-31T11:06:16;98733.59;;;26.53;37.54
44138;BME280;29800;55.942;37.314;2023-07-31T11:08:44;98734.41;;;26.54;39.77
44138;BME280;29800;55.942;37.314;2023-07-31T11:11:13;98731.25;;;26.59;38.79
44138;BME280;29800;55.942;37.314;2023-07-31T11:13:47;98729.59;;;26.54;37.57
44138;BME280;29800;55.942;37.314;2023-07-31T11:16:24;98736.28;;;26.46;37.71
44138;BME280;29800;55.942;37.314;2023-07-31T11:18:52;98744.09;;;26.30;38.06
44138;BME280;29800;55.942;37.314;2023-07-31T11:21:22;98742.16;;;26.07;38.77
44138;BME280;29800;55.942;37.314;2023-07-31T11:23:51;98741.13;;;25.92;39.40
44138;BME280;29800;55.942;37.314;2023-07-31T11:26:18;98742.94;;;25.81;39.47
44138;BME280;29800;55.942;37.314;2023-07-31T11:28:48;98736.78;;;25.68;40.52
44138;BME280;29800;55.942;37.314;2023-07-31T11:31:16;98746.13;;;25.53;40.86
44138;BME280;29800;55.942;37.314;2023-07-31T11:33:43;98744.00;;;25.46;41.57
44138;BME280;29800;55.942;37.314;2023-07-31T11:36:17;98742.25;;;25.38;41.72
44138;BME280;29800;55.942;37.314;2023-07-31T11:38:44;98742.34;;;25.22;41.64
44138;BME280;29800;55.942;37.314;2023-07-31T11:41:10;98748.56;;;25.11;42.82
44138;BME280;29800;55.942;37.314;2023-07-31T11:43:39;98746.88;;;25.07;41.91
44138;BME280;29800;55.942;37.314;2023-07-31T11:46:06;98743.16;;;24.99;43.26
44138;BME280;29800;55.942;37.314;2023-07-31T11:48:36;98749.34;;;24.89;44.15
44138;BME280;29800;55.942;37.314;2023-07-31T11:51:05;98751.22;;;24.81;43.00
44138;BME280;29800;55.942;37.314;2023-07-31T11:55:59;98764.84;;;24.63;44.34
44138;BME280;29800;55.942;37.314;2023-07-31T11:58:27;98765.13;;;24.58;44.75
44138;BME280;29800;55.942;37.314;2023-07-31T12:00:56;98763.34;;;24.50;45.75
44138;BME280;29800;55.942;37.314;2023-07-31T12:03:22;98765.97;;;24.43;46.06
44138;BME280;29800;55.942;37.314;2023-07-31T12:05:49;98767.06;;;24.38;45.42
44138;BME280;29800;55.942;37.314;2023-07-31T12:08:16;98769.84;;;24.38;46.16
44138;BME280;29800;55.942;37.314;2023-07-31T12:10:42;98773.00;;;24.36;46.66
44138;BME280;29800;55.942;37.314;2023-07-31T12:13:11;98769.50;;;24.39;47.24
44138;BME280;29800;55.942;37.314;2023-07-31T12:15:43;98765.16;;;24.42;48.53
44138;BME280;29800;55.942;37.314;2023-07-31T12:18:14;98764.94;;;24.51;46.56
44138;BME280;29800;55.942;37.314;2023-07-31T12:20:49;98767.47;;;24.56;47.25
44138;BME280;29800;55.942;37.314;2023-07-31T12:23:22;98770.78;;;24.62;45.33
44138;BME280;29800;55.942;37.314;2023-07-31T12:26:12;98767.09;;;24.77;46.41
44138;BME280;29800;55.942;37.314;2023-07-31T12:28:48;98762.66;;;24.95;46.31
44138;BME280;29800;55.942;37.314;2023-07-31T12:31:16;98763.63;;;25.03;44.57
44138;BME280;29800;55.942;37.314;2023-07-31T12:33:47;98763.75;;;25.10;44.10
44138;BME280;29800;55.942;37.314;2023-07-31T12:36:18;98763.63;;;25.26;46.14
44138;BME280;29800;55.942;37.314;2023-07-31T12:38:46;98763.66;;;25.49;45.06
44138;BME280;29800;55.942;37.314;2023-07-31T12:41:13;98768.66;;;25.60;44.54
44138;BME280;29800;55.942;37.314;2023-07-31T12:43:41;98766.84;;;25.71;44.45
44138;BME280;29800;55.942;37.314;2023-07-31T12:46:08;98754.56;;;25.79;43.49
44138;BME280;29800;55.942;37.314;2023-07-31T12:48:35;98763.16;;;25.94;42.82
44138;BME280;29800;55.942;37.314;2023-07-31T12:51:02;98758.19;;;26.07;41.84
44138;BME280;29800;55.942;37.314;2023-07-31T12:53:29;98757.97;;;26.19;42.61
44138;BME280;29800;55.942;37.314;2023-07-31T12:55:56;98756.06;;;26.27;41.10
44138;BME280;29800;55.942;37.314;2023-07-31T12:58:23;98753.03;;;26.39;40.04